createdAt,value
2019-04-26T00:01:21.465Z,99203.67
2019-04-26T00:03:50.843Z,99196.80
2019-04-26T00:06:19.855Z,99196.80
2019-04-26T00:08:52.499Z,99208.38
2019-04-26T00:11:22.976Z,99215.66
2019-04-26T00:14:05.000Z,99213.36
2019-04-26T00:16:38.097Z,99220.86
2019-04-26T00:19:06.660Z,99227.77
2019-04-26T00:21:35.330Z,99218.09
2019-04-26T00:24:04.325Z,99218.41
2019-04-26T00:26:33.157Z,99212.09
2019-04-26T00:29:01.581Z,99209.09
2019-04-26T00:31:29.998Z,99203.95
2019-04-26T00:33:58.463Z,99201.13
2019-04-26T00:36:26.880Z,99199.30
2019-04-26T00:38:55.256Z,99200.49
2019-04-26T00:41:24.011Z,99200.49
2019-04-26T00:43:53.273Z,99192.39
2019-04-26T00:46:24.744Z,99194.40
2019-04-26T00:48:54.394Z,99210.15
2019-04-26T00:51:23.517Z,99235.50
2019-04-26T00:53:52.542Z,99248.53
2019-04-26T00:56:22.241Z,99262.48
2019-04-26T00:58:51.461Z,99267.27
2019-04-26T01:01:21.372Z,99275.28
2019-04-26T01:03:49.762Z,99281.77
2019-04-26T01:06:20.877Z,99280.95
2019-04-26T01:08:51.182Z,99276.17
2019-04-26T01:11:19.978Z,99273.98
2019-04-26T01:13:48.347Z,99282.91
2019-04-26T01:16:17.443Z,99300.05
2019-04-26T01:18:48.403Z,99297.95
2019-04-26T01:21:20.587Z,99302.11
2019-04-26T01:23:51.644Z,99313.00
2019-04-26T01:26:33.679Z,99309.98
2019-04-26T01:29:07.935Z,99308.80
2019-04-26T01:31:41.990Z,99296.64
2019-04-26T01:34:10.525Z,99294.08
2019-04-26T01:36:40.674Z,99289.57
2019-04-26T01:39:14.444Z,99295.48
2019-04-26T01:41:48.035Z,99297.75
2019-04-26T01:44:18.811Z,99299.43
2019-04-26T01:46:51.701Z,99295.51
2019-04-26T01:49:24.129Z,99295.62
2019-04-26T01:52:10.899Z,99304.98
2019-04-26T01:54:42.238Z,99296.56
2019-04-26T01:57:11.045Z,99309.31
2019-04-26T01:59:46.840Z,99318.23
2019-04-26T02:02:33.209Z,99316.13
2019-04-26T02:05:15.555Z,99318.88
2019-04-26T02:07:44.205Z,99307.95
2019-04-26T02:10:15.645Z,99297.38
2019-04-26T02:12:46.543Z,99304.70
2019-04-26T02:15:16.405Z,99308.53
2019-04-26T02:17:46.529Z,99309.17
2019-04-26T02:20:17.962Z,99309.63
2019-04-26T02:22:51.106Z,99312.09
2019-04-26T02:25:19.564Z,99314.42
2019-04-26T02:27:48.094Z,99316.06
2019-04-26T02:30:16.888Z,99310.98
2019-04-26T02:32:45.231Z,99308.13
2019-04-26T02:35:13.624Z,99316.48
2019-04-26T02:37:42.351Z,99329.94
2019-04-26T02:40:16.702Z,99328.01
2019-04-26T02:42:45.632Z,99327.96
2019-04-26T02:45:29.991Z,99317.95
2019-04-26T02:48:16.744Z,99308.34
2019-04-26T02:50:49.830Z,99309.54
2019-04-26T02:53:28.869Z,99308.17
2019-04-26T02:56:24.244Z,99306.91
2019-04-26T02:59:01.755Z,99313.78
2019-04-26T03:01:32.313Z,99318.52
2019-04-26T03:04:01.349Z,99322.73
2019-04-26T03:06:34.273Z,99304.98
2019-04-26T03:09:06.777Z,99312.78
2019-04-26T03:11:39.150Z,99312.41
2019-04-26T03:14:12.423Z,99317.75
2019-04-26T03:16:57.381Z,99324.88
2019-04-26T03:19:43.169Z,99316.11
2019-04-26T03:22:21.016Z,99311.54
2019-04-26T03:25:11.963Z,99312.78
2019-04-26T03:28:00.156Z,99310.39
2019-04-26T03:30:42.283Z,99319.60
2019-04-26T03:33:22.399Z,99324.27
2019-04-26T03:36:01.423Z,99317.77
2019-04-26T03:38:43.586Z,99314.35
2019-04-26T03:41:25.836Z,99305.91
2019-04-26T03:44:00.327Z,99312.52
2019-04-26T03:46:49.868Z,99319.27
2019-04-26T03:49:41.425Z,99309.04
2019-04-26T03:52:18.332Z,99318.68
2019-04-26T03:54:49.771Z,99317.67
2019-04-26T03:57:38.914Z,99312.86
2019-04-26T04:00:11.619Z,99303.59
2019-04-26T04:02:50.688Z,99300.19
2019-04-26T04:05:26.540Z,99308.20
2019-04-26T04:07:58.084Z,99313.44
2019-04-26T04:10:50.604Z,99312.55
2019-04-26T04:13:40.621Z,99327.24
2019-04-26T04:16:20.563Z,99327.24
2019-04-26T04:18:53.988Z,99331.97
2019-04-26T04:21:43.053Z,99332.95
2019-04-26T04:24:14.836Z,99339.77
2019-04-26T04:26:55.654Z,99334.06
2019-04-26T04:29:50.531Z,99336.20
2019-04-26T04:32:23.963Z,99343.83
2019-04-26T04:34:55.769Z,99350.58
2019-04-26T04:37:27.239Z,99363.73
2019-04-26T04:40:18.175Z,99366.56
2019-04-26T04:43:11.685Z,99354.97
2019-04-26T04:45:56.410Z,99355.72
2019-04-26T04:48:43.299Z,99357.70
2019-04-26T04:51:42.847Z,99357.70
2019-04-26T04:54:20.140Z,99365.94
2019-04-26T04:56:57.325Z,99369.73
2019-04-26T04:59:52.452Z,99368.63
2019-04-26T05:03:57.919Z,99364.80
2019-04-26T05:06:47.040Z,99375.13
2019-04-26T05:09:33.680Z,99409.15
2019-04-26T05:12:16.966Z,99409.15
2019-04-26T05:14:56.709Z,99419.48
2019-04-26T05:17:46.159Z,99430.45
2019-04-26T05:20:17.930Z,99442.03
2019-04-26T05:22:55.480Z,99454.54
2019-04-26T05:25:58.348Z,99460.20
2019-04-26T05:28:56.809Z,99459.44
2019-04-26T05:31:37.762Z,99452.00
2019-04-26T05:34:19.657Z,99444.37
2019-04-26T05:37:20.067Z,99450.98
2019-04-26T05:40:15.586Z,99463.27
2019-04-26T05:43:03.711Z,99463.27
2019-04-26T05:46:00.656Z,99476.33
2019-04-26T05:48:58.070Z,99477.23
2019-04-26T05:51:51.946Z,99489.01
2019-04-26T05:54:40.345Z,99496.95
2019-04-26T05:57:29.806Z,99500.78
2019-04-26T06:00:32.898Z,99489.83
2019-04-26T06:03:28.657Z,99486.36
2019-04-26T06:06:23.054Z,99474.82
2019-04-26T06:09:08.297Z,99478.29
2019-04-26T06:11:47.355Z,99484.41
2019-04-26T06:14:52.940Z,99492.40
2019-04-26T06:17:34.936Z,99495.45
2019-04-26T06:20:22.661Z,99508.87
2019-04-26T06:22:57.691Z,99516.40
2019-04-26T06:25:52.490Z,99512.69
2019-04-26T06:28:36.688Z,99513.32
2019-04-26T06:31:23.114Z,99519.05
2019-04-26T06:34:11.365Z,99525.11
2019-04-26T06:36:50.059Z,99530.91
2019-04-26T06:39:32.025Z,99526.73
2019-04-26T06:42:37.227Z,99528.75
2019-04-26T06:45:32.672Z,99528.88
2019-04-26T06:48:14.388Z,99527.13
2019-04-26T06:50:54.529Z,99527.63
2019-04-26T06:53:35.034Z,99530.23
2019-04-26T06:56:24.995Z,99528.77
2019-04-26T06:59:05.860Z,99531.23
2019-04-26T07:01:39.827Z,99539.88
2019-04-26T07:04:11.250Z,99544.34
2019-04-26T07:06:48.653Z,99549.91
2019-04-26T07:09:20.240Z,99551.31
2019-04-26T07:12:05.240Z,99540.04
2019-04-26T07:15:00.577Z,99540.14
2019-04-26T07:17:55.276Z,99532.34
2019-04-26T07:20:41.572Z,99525.50
2019-04-26T07:23:45.157Z,99526.08
2019-04-26T07:26:49.816Z,99550.19
2019-04-26T07:29:45.609Z,99567.63
2019-04-26T07:32:36.343Z,99566.31
2019-04-26T07:35:35.194Z,99561.90
2019-04-26T07:38:48.979Z,99566.81
2019-04-26T07:41:24.543Z,99575.22
2019-04-26T07:44:07.613Z,99568.96
2019-04-26T07:47:04.126Z,99570.88
2019-04-26T07:49:59.651Z,99585.67
2019-04-26T07:52:48.898Z,99568.95
2019-04-26T07:55:29.491Z,99572.43
2019-04-26T07:58:20.829Z,99588.64
2019-04-26T08:01:37.061Z,99592.42
2019-04-26T08:04:15.832Z,99602.23
2019-04-26T08:07:08.577Z,99594.25
2019-04-26T08:09:40.039Z,99592.11
2019-04-26T08:12:12.151Z,99587.63
2019-04-26T08:14:53.941Z,99599.55
2019-04-26T08:17:35.620Z,99604.34
2019-04-26T08:20:37.413Z,99606.21
2019-04-26T08:23:16.857Z,99617.88
2019-04-26T08:25:42.508Z,99616.77
2019-04-26T08:28:14.259Z,99612.63
2019-04-26T08:30:46.261Z,99622.96
2019-04-26T08:33:18.301Z,99624.11
2019-04-26T08:35:53.278Z,99629.25
2019-04-26T08:38:22.833Z,99637.75
2019-04-26T08:40:52.905Z,99639.61
2019-04-26T08:43:41.691Z,99629.88
2019-04-26T08:46:17.553Z,99623.88
2019-04-26T08:49:07.103Z,99628.78
2019-04-26T08:51:38.437Z,99629.61
2019-04-26T08:54:18.861Z,99633.03
2019-04-26T08:56:50.318Z,99626.97
2019-04-26T08:59:24.496Z,99627.50
2019-04-26T09:01:57.005Z,99628.88
2019-04-26T09:04:45.811Z,99630.33
2019-04-26T09:07:18.912Z,99636.46
2019-04-26T09:09:57.008Z,99632.03
2019-04-26T09:12:24.004Z,99629.56
2019-04-26T09:14:55.491Z,99636.28
2019-04-26T09:17:27.817Z,99640.22
2019-04-26T09:19:54.181Z,99640.22
2019-04-26T09:22:40.542Z,99650.44
2019-04-26T09:25:30.247Z,99658.76
2019-04-26T09:28:01.109Z,99655.75
2019-04-26T09:30:34.003Z,99679.92
2019-04-26T09:33:06.164Z,99671.52
2019-04-26T09:35:34.594Z,99688.00
2019-04-26T09:38:03.087Z,99693.78
2019-04-26T09:40:31.785Z,99692.30
2019-04-26T09:43:15.251Z,99693.05
2019-04-26T09:45:54.844Z,99707.91
2019-04-26T09:48:24.920Z,99699.80
2019-04-26T09:50:55.275Z,99707.42
2019-04-26T09:53:23.705Z,99694.92
2019-04-26T09:55:52.099Z,99690.65
2019-04-26T09:58:20.517Z,99692.12
2019-04-26T10:00:50.254Z,99689.52
2019-04-26T10:03:18.911Z,99683.22
2019-04-26T10:05:47.373Z,99666.31
2019-04-26T10:08:15.939Z,99669.23
2019-04-26T10:10:44.420Z,99664.48
2019-04-26T10:13:17.401Z,99664.48
2019-04-26T10:15:50.278Z,99674.32
2019-04-26T10:18:24.528Z,99678.75
2019-04-26T10:20:51.463Z,99679.81
2019-04-26T10:23:19.887Z,99685.12
2019-04-26T10:25:52.064Z,99685.12
2019-04-26T10:28:18.653Z,99693.03
2019-04-26T10:30:47.385Z,99690.76
2019-04-26T10:33:15.940Z,99697.25
2019-04-26T10:35:44.436Z,99687.25
2019-04-26T10:38:12.824Z,99687.25
2019-04-26T10:40:41.220Z,99689.42
2019-04-26T10:43:11.258Z,99689.42
2019-04-26T10:45:39.738Z,99690.31
2019-04-26T10:48:09.578Z,99690.31
2019-04-26T10:50:38.729Z,99696.63
2019-04-26T10:53:08.836Z,99683.89
2019-04-26T10:55:42.026Z,99684.05
2019-04-26T10:58:16.114Z,99686.10
2019-04-26T11:00:48.412Z,99686.10
2019-04-26T11:03:16.623Z,99680.70
2019-04-26T11:05:45.044Z,99681.86
2019-04-26T11:08:13.461Z,99679.20
2019-04-26T11:10:48.580Z,99674.98
2019-04-26T11:13:12.095Z,99676.67
2019-04-26T11:15:40.843Z,99675.98
2019-04-26T11:18:09.419Z,99674.31
2019-04-26T11:20:41.402Z,99671.03
2019-04-26T11:23:11.621Z,99675.55
2019-04-26T11:25:38.343Z,99669.98
2019-04-26T11:28:06.826Z,99670.93
2019-04-26T11:30:35.309Z,99681.71
2019-04-26T11:33:07.221Z,99679.23
2019-04-26T11:35:34.856Z,99690.80
2019-04-26T11:38:03.717Z,99701.98
2019-04-26T11:40:32.219Z,99707.81
2019-04-26T11:43:00.739Z,99707.30
2019-04-26T11:45:29.213Z,99694.73
2019-04-26T11:47:57.691Z,99692.95
2019-04-26T11:50:26.187Z,99696.87
2019-04-26T11:52:54.605Z,99696.87
2019-04-26T11:55:25.239Z,99688.28
2019-04-26T11:57:53.154Z,99707.48
2019-04-26T12:00:23.465Z,99704.39
2019-04-26T12:02:52.270Z,99709.45
2019-04-26T12:05:34.478Z,99701.83
2019-04-26T12:08:04.512Z,99701.83
2019-04-26T12:10:32.958Z,99696.81
2019-04-26T12:13:05.948Z,99703.48
2019-04-26T12:15:31.584Z,99707.22
2019-04-26T12:18:00.026Z,99706.79
2019-04-26T12:20:28.587Z,99715.94
2019-04-26T12:22:56.955Z,99676.13
2019-04-26T12:25:25.347Z,99707.65
2019-04-26T12:27:53.943Z,99717.38
2019-04-26T12:30:26.317Z,99717.13
2019-04-26T12:32:52.788Z,99722.05
2019-04-26T12:35:21.183Z,99723.30
2019-04-26T12:37:50.637Z,99723.00
2019-04-26T12:40:19.798Z,99718.49
2019-04-26T12:42:48.365Z,99717.26
2019-04-26T12:45:21.616Z,99705.86
2019-04-26T12:48:00.888Z,99689.37
2019-04-26T12:50:34.085Z,99700.77
2019-04-26T12:52:59.496Z,99704.67
2019-04-26T12:55:27.882Z,99700.97
2019-04-26T12:57:56.327Z,99711.58
2019-04-26T13:00:26.647Z,99705.41
2019-04-26T13:02:55.847Z,99701.93
2019-04-26T13:05:24.359Z,99702.72
2019-04-26T13:07:53.957Z,99704.70
2019-04-26T13:10:27.024Z,99722.08
2019-04-26T13:13:02.682Z,99730.80
2019-04-26T13:16:02.586Z,99708.17
2019-04-26T13:18:31.828Z,99716.75
2019-04-26T13:21:03.135Z,99716.63
2019-04-26T13:23:31.338Z,99712.55
2019-04-26T13:26:01.463Z,99717.77
2019-04-26T13:28:30.229Z,99721.78
2019-04-26T13:31:01.878Z,99715.52
2019-04-26T13:33:29.215Z,99710.92
2019-04-26T13:36:04.920Z,99721.88
2019-04-26T13:38:27.981Z,99720.73
2019-04-26T13:40:59.674Z,99729.22
2019-04-26T13:43:28.480Z,99729.66
2019-04-26T13:46:01.644Z,99736.45
2019-04-26T13:48:43.551Z,99748.70
2019-04-26T13:51:21.494Z,99751.13
2019-04-26T13:53:49.888Z,99753.95
2019-04-26T13:56:18.297Z,99757.11
2019-04-26T13:58:46.688Z,99744.43
2019-04-26T14:01:18.580Z,99767.00
2019-04-26T14:03:45.780Z,99763.84
2019-04-26T14:06:14.260Z,99766.05
2019-04-26T14:08:42.886Z,99758.08
2019-04-26T14:11:11.277Z,99747.20
2019-04-26T14:13:39.878Z,99759.47
2019-04-26T14:16:08.277Z,99755.93
2019-04-26T14:18:39.147Z,99747.84
2019-04-26T14:21:06.891Z,99753.22
2019-04-26T14:23:52.405Z,99756.92
2019-04-26T14:26:22.591Z,99757.17
2019-04-26T14:28:54.289Z,99756.13
2019-04-26T14:31:21.282Z,99768.12
2019-04-26T14:33:49.711Z,99769.21
2019-04-26T14:36:18.625Z,99776.36
2019-04-26T14:38:47.228Z,99768.68
2019-04-26T14:41:22.018Z,99766.95
2019-04-26T14:43:45.965Z,99763.18
2019-04-26T14:46:16.294Z,99767.14
2019-04-26T14:48:54.876Z,99762.33
2019-04-26T14:51:16.873Z,99760.08
2019-04-26T14:53:45.130Z,99763.43
2019-04-26T14:56:13.560Z,99760.62
2019-04-26T14:58:42.354Z,99773.55
2019-04-26T15:01:15.484Z,99761.00
2019-04-26T15:03:45.699Z,99759.30
2019-04-26T15:06:20.455Z,99747.30
2019-04-26T15:08:48.996Z,99741.94
2019-04-26T15:11:17.324Z,99741.94
2019-04-26T15:13:46.001Z,99735.50
2019-04-26T15:16:14.566Z,99731.25
2019-04-26T15:18:43.021Z,99734.08
2019-04-26T15:21:12.931Z,99738.84
2019-04-26T15:23:41.409Z,99744.18
2019-04-26T15:26:09.996Z,99746.44
2019-04-26T15:28:38.457Z,99747.81
2019-04-26T15:31:06.960Z,99742.50
2019-04-26T15:33:36.077Z,99737.66
2019-04-26T15:36:06.404Z,99726.88
2019-04-26T15:38:41.497Z,99728.27
2019-04-26T15:41:14.608Z,99736.09
2019-04-26T15:43:42.873Z,99745.60
2019-04-26T15:46:13.509Z,99748.13
2019-04-26T15:48:55.739Z,99747.27
2019-04-26T15:51:27.481Z,99752.95
2019-04-26T15:53:56.105Z,99756.95
2019-04-26T15:56:24.544Z,99755.95
2019-04-26T15:58:52.960Z,99760.86
2019-04-26T16:01:21.514Z,99762.44
2019-04-26T16:03:49.916Z,99755.47
2019-04-26T16:06:18.369Z,99747.59
2019-04-26T16:08:46.947Z,99752.41
2019-04-26T16:11:15.621Z,99758.13
2019-04-26T16:13:45.121Z,99760.30
2019-04-26T16:16:16.478Z,99760.73
2019-04-26T16:18:44.416Z,99763.12
2019-04-26T16:21:17.823Z,99759.13
2019-04-26T16:23:51.143Z,99757.36
2019-04-26T16:26:15.372Z,99757.59
2019-04-26T16:28:45.820Z,99762.11
2019-04-26T16:31:21.548Z,99766.76
2019-04-26T16:33:52.084Z,99762.48
2019-04-26T16:36:21.895Z,99763.98
2019-04-26T16:38:56.095Z,99760.05
2019-04-26T16:41:21.767Z,99766.31
2019-04-26T16:43:53.598Z,99770.05
2019-04-26T16:46:24.232Z,99768.47
2019-04-26T16:48:57.074Z,99770.14
2019-04-26T16:51:23.294Z,99769.76
2019-04-26T16:54:03.601Z,99773.74
2019-04-26T16:56:26.275Z,99774.76
2019-04-26T16:58:54.731Z,99772.27
2019-04-26T17:01:23.434Z,99772.70
2019-04-26T17:03:53.489Z,99770.14
2019-04-26T17:06:23.334Z,99780.00
2019-04-26T17:09:00.249Z,99780.19
2019-04-26T17:11:23.003Z,99778.51
2019-04-26T17:13:56.145Z,99778.44
2019-04-26T17:16:22.440Z,99791.66
2019-04-26T17:18:51.798Z,99784.18
2019-04-26T17:21:25.486Z,99786.72
2019-04-26T17:23:56.417Z,99782.55
2019-04-26T17:26:29.312Z,99781.71
2019-04-26T17:28:56.662Z,99779.94
2019-04-26T17:31:25.119Z,99786.98
2019-04-26T17:33:53.539Z,99781.86
2019-04-26T17:36:22.045Z,99784.92
2019-04-26T17:38:50.656Z,99789.05
2019-04-26T17:41:19.124Z,99789.63
2019-04-26T17:43:52.060Z,99791.20
2019-04-26T17:46:18.271Z,99787.41
2019-04-26T17:48:49.415Z,99788.36
2019-04-26T17:51:19.118Z,99788.09
2019-04-26T17:53:50.613Z,99791.98
2019-04-26T17:56:18.238Z,99790.65
2019-04-26T17:58:52.451Z,99782.16
2019-04-26T18:01:41.496Z,99782.66
2019-04-26T18:03:52.256Z,99782.66
2019-04-26T18:06:29.043Z,99791.26
2019-04-26T18:08:54.606Z,99781.59
2019-04-26T18:11:20.182Z,99787.98
2019-04-26T18:13:51.109Z,99796.14
2019-04-26T18:16:22.378Z,99805.38
2019-04-26T18:19:03.264Z,99803.23
2019-04-26T18:21:43.696Z,99799.68
2019-04-26T18:24:13.206Z,99804.41
2019-04-26T18:26:41.800Z,99807.39
2019-04-26T18:29:10.415Z,99804.98
2019-04-26T18:31:39.725Z,99802.19
2019-04-26T18:34:08.199Z,99805.80
2019-04-26T18:36:36.693Z,99801.82
2019-04-26T18:39:07.900Z,99804.80
2019-04-26T18:41:36.389Z,99802.64
2019-04-26T18:44:05.735Z,99806.98
2019-04-26T18:46:40.050Z,99815.58
2019-04-26T18:49:06.143Z,99812.15
2019-04-26T18:51:34.594Z,99812.59
2019-04-26T18:54:09.232Z,99809.71
2019-04-26T18:56:40.524Z,99812.58
2019-04-26T18:59:11.738Z,99811.36
2019-04-26T19:01:41.831Z,99817.66
2019-04-26T19:04:12.747Z,99815.50
2019-04-26T19:06:42.223Z,99813.66
2019-04-26T19:09:09.885Z,99818.61
2019-04-26T19:11:42.086Z,99817.25
2019-04-26T19:14:18.858Z,99822.05
2019-04-26T19:16:50.582Z,99817.41
2019-04-26T19:19:37.264Z,99820.16
2019-04-26T19:22:09.352Z,99816.71
2019-04-26T19:24:38.644Z,99825.03
2019-04-26T19:27:07.357Z,99830.00
2019-04-26T19:29:36.299Z,99824.41
2019-04-26T19:32:05.577Z,99824.67
2019-04-26T19:34:34.030Z,99816.72
2019-04-26T19:37:03.349Z,99828.41
2019-04-26T19:39:35.385Z,99821.23
2019-04-26T19:42:02.537Z,99824.27
2019-04-26T19:44:31.553Z,99822.84
2019-04-26T19:47:16.932Z,99823.16
2019-04-26T19:49:54.098Z,99827.45
2019-04-26T19:52:33.723Z,99822.79
2019-04-26T19:55:02.045Z,99822.79
2019-04-26T19:57:42.653Z,99819.67
2019-04-26T20:03:43.094Z,99823.70
2019-04-26T20:06:14.190Z,99828.27
2019-04-26T20:08:45.932Z,99819.53
2019-04-26T20:11:14.295Z,99825.15
2019-04-26T20:13:42.681Z,99821.56
2019-04-26T20:16:11.223Z,99815.31
2019-04-26T20:18:39.887Z,99823.80
2019-04-26T20:21:12.393Z,99823.47
2019-04-26T20:23:45.828Z,99828.77
2019-04-26T20:26:09.021Z,99829.64
2019-04-26T20:28:37.615Z,99831.03
2019-04-26T20:31:13.627Z,99824.91
2019-04-26T20:33:42.473Z,99823.94
2019-04-26T20:36:11.062Z,99823.94
2019-04-26T20:38:43.703Z,99826.36
2019-04-26T20:41:13.160Z,99831.83
2019-04-26T20:43:45.605Z,99831.83
2019-04-26T20:46:14.911Z,99834.48
2019-04-26T20:48:40.190Z,99837.05
2019-04-26T20:51:11.025Z,99847.42
2019-04-26T20:53:41.306Z,99852.91
2019-04-26T20:56:10.662Z,99841.09
2019-04-26T20:58:43.200Z,99841.09
2019-04-26T21:01:12.522Z,99845.59
2019-04-26T21:03:44.424Z,99849.33
2019-04-26T21:06:11.454Z,99853.02
2019-04-26T21:08:40.086Z,99852.03
2019-04-26T21:11:08.768Z,99854.75
2019-04-26T21:13:37.313Z,99851.31
2019-04-26T21:16:10.474Z,99854.17
2019-04-26T21:18:40.031Z,99851.20
2019-04-26T21:21:10.434Z,99851.04
2019-04-26T21:23:39.999Z,99850.55
2019-04-26T21:26:23.530Z,99842.00
2019-04-26T21:28:56.881Z,99839.20
2019-04-26T21:31:40.804Z,99833.30
2019-04-26T21:34:12.490Z,99837.10
2019-04-26T21:36:43.807Z,99842.73
2019-04-26T21:39:27.008Z,99841.25
2019-04-26T21:41:57.110Z,99847.35
2019-04-26T21:44:25.755Z,99848.50
2019-04-26T21:46:58.664Z,99846.86
2019-04-26T21:49:24.506Z,99845.55
2019-04-26T21:51:54.301Z,99853.33
2019-04-26T21:54:24.954Z,99860.25
2019-04-26T21:56:53.734Z,99859.10
2019-04-26T21:59:22.194Z,99860.15
2019-04-26T22:01:53.889Z,99854.90
2019-04-26T22:04:20.965Z,99852.55
2019-04-26T22:06:49.435Z,99860.19
2019-04-26T22:09:28.617Z,99850.11
2019-04-26T22:11:56.538Z,99862.83
2019-04-26T22:14:26.650Z,99860.03
2019-04-26T22:17:02.029Z,99866.14
2019-04-26T22:19:35.343Z,99866.14
2019-04-26T22:22:24.184Z,99867.99
2019-04-26T22:24:55.448Z,99876.75
2019-04-26T22:27:25.624Z,99867.34
2019-04-26T22:29:55.065Z,99867.83
2019-04-26T22:32:23.657Z,99865.85
2019-04-26T22:34:53.744Z,99876.78
2019-04-26T22:37:29.529Z,99876.12
2019-04-26T22:39:54.218Z,99877.31
2019-04-26T22:42:23.930Z,99883.05
2019-04-26T22:44:56.594Z,99881.44
2019-04-26T22:47:26.731Z,99892.02
2019-04-26T22:49:55.184Z,99891.48
2019-04-26T22:52:23.661Z,99890.52
2019-04-26T22:54:53.746Z,99886.87
2019-04-26T22:57:23.200Z,99887.39
2019-04-26T22:59:53.562Z,99893.16
2019-04-26T23:02:23.614Z,99893.81
2019-04-26T23:04:55.924Z,99887.05
2019-04-26T23:07:25.274Z,99888.72
2019-04-26T23:09:55.342Z,99888.05
2019-04-26T23:12:28.305Z,99886.72
2019-04-26T23:15:03.221Z,99883.58
2019-04-26T23:17:49.677Z,99886.70
2019-04-26T23:20:37.812Z,99879.81
2019-04-26T23:23:08.531Z,99876.17
2019-04-26T23:25:36.838Z,99874.84
2019-04-26T23:28:05.237Z,99874.17
2019-04-26T23:30:33.742Z,99872.20
2019-04-26T23:33:02.195Z,99868.89
2019-04-26T23:35:30.694Z,99861.80
2019-04-26T23:38:00.990Z,99861.63
2019-04-26T23:40:29.314Z,99863.44
2019-04-26T23:42:57.847Z,99865.07
2019-04-26T23:45:26.469Z,99865.88
2019-04-26T23:47:54.861Z,99870.19
2019-04-26T23:50:25.596Z,99864.87
2019-04-26T23:52:53.422Z,99865.36
2019-04-26T23:55:23.523Z,99866.84
2019-04-26T23:57:53.476Z,99869.13
